sensor_id;sensor_type;location;lat;lon;timestamp;pressure;altitude;pressure_sealevel;temperature;humidity
25238;BME280;13185;50.872;5.306;2023-02-11T00:01:37;103239.47;;;5.38;100.00
25238;BME280;13185;50.872;5.306;2023-02-11T00:04:04;103241.25;;;5.36;100.00
25238;BME280;13185;50.872;5.306;2023-02-11T00:06:31;103236.84;;;5.34;100.00
25238;BME280;13185;50.872;5.306;2023-02-11T00:08:56;103231.50;;;5.31;100.00
25238;BME280;13185;50.872;5.306;2023-02-11T00:11:23;103228.88;;;5.28;100.00
25238;BME280;13185;50.872;5.306;2023-02-11T00:13:57;103236.91;;;5.21;100.00
25238;BME280;13185;50.872;5.306;2023-02-11T00:16:23;103245.75;;;5.20;100.00
25238;BME280;13185;50.872;5.306;2023-02-11T00:18:48;103241.31;;;5.19;100.00
25238;BME280;13185;50.872;5.306;2023-02-11T00:21:17;103237.78;;;5.17;100.00
25238;BME280;13185;50.872;5.306;2023-02-11T00:23:44;103235.16;;;5.14;100.00
25238;BME280;13185;50.872;5.306;2023-02-11T00:26:31;103234.28;;;5.12;100.00
25238;BME280;13185;50.872;5.306;2023-02-11T00:28:57;103223.63;;;5.08;100.00
25238;BME280;13185;50.872;5.306;2023-02-11T00:31:23;103231.63;;;5.05;100.00
25238;BME280;13185;50.872;5.306;2023-02-11T00:33:49;103224.56;;;5.04;100.00
25238;BME280;13185;50.872;5.306;2023-02-11T00:36:18;103237.88;;;5.02;100.00
25238;BME280;13185;50.872;5.306;2023-02-11T00:38:46;103229.91;;;5.01;100.00
25238;BME280;13185;50.872;5.306;2023-02-11T00:41:12;103215.69;;;4.99;100.00
25238;BME280;13185;50.872;5.306;2023-02-11T00:43:39;103223.69;;;4.96;100.00
25238;BME280;13185;50.872;5.306;2023-02-11T00:46:05;103223.72;;;4.92;100.00
25238;BME280;13185;50.872;5.306;2023-02-11T00:48:31;103218.41;;;4.86;100.00
25238;BME280;13185;50.872;5.306;2023-02-11T00:50:59;103216.66;;;4.84;100.00
25238;BME280;13185;50.872;5.306;2023-02-11T00:53:25;103216.66;;;4.81;100.00
25238;BME280;13185;50.872;5.306;2023-02-11T00:55:51;103209.56;;;4.78;100.00
25238;BME280;13185;50.872;5.306;2023-02-11T00:58:16;103207.78;;;4.77;100.00
25238;BME280;13185;50.872;5.306;2023-02-11T01:00:42;103198.94;;;4.75;100.00
25238;BME280;13185;50.872;5.306;2023-02-11T01:03:07;103213.13;;;4.74;100.00
25238;BME280;13185;50.872;5.306;2023-02-11T01:05:33;103199.84;;;4.74;100.00
25238;BME280;13185;50.872;5.306;2023-02-11T01:07:59;103196.31;;;4.74;100.00
25238;BME280;13185;50.872;5.306;2023-02-11T01:10:24;103202.50;;;4.74;100.00
25238;BME280;13185;50.872;5.306;2023-02-11T01:12:51;103204.28;;;4.75;100.00
25238;BME280;13185;50.872;5.306;2023-02-11T01:15:18;103203.38;;;4.76;100.00
25238;BME280;13185;50.872;5.306;2023-02-11T01:17:44;103209.56;;;4.77;100.00
25238;BME280;13185;50.872;5.306;2023-02-11T01:20:15;103209.56;;;4.78;100.00
25238;BME280;13185;50.872;5.306;2023-02-11T01:22:41;103208.69;;;4.78;100.00
25238;BME280;13185;50.872;5.306;2023-02-11T01:25:07;103224.63;;;4.78;100.00
25238;BME280;13185;50.872;5.306;2023-02-11T01:27:34;103220.19;;;4.78;100.00
25238;BME280;13185;50.872;5.306;2023-02-11T01:30:00;103220.19;;;4.78;100.00
25238;BME280;13185;50.872;5.306;2023-02-11T01:32:25;103219.31;;;4.76;100.00
25238;BME280;13185;50.872;5.306;2023-02-11T01:34:52;103220.22;;;4.75;100.00
25238;BME280;13185;50.872;5.306;2023-02-11T01:37:18;103224.66;;;4.75;100.00
25238;BME280;13185;50.872;5.306;2023-02-11T01:39:43;103216.69;;;4.73;100.00
25238;BME280;13185;50.872;5.306;2023-02-11T01:42:15;103214.94;;;4.71;100.00
25238;BME280;13185;50.872;5.306;2023-02-11T01:44:41;103216.72;;;4.70;100.00
25238;BME280;13185;50.872;5.306;2023-02-11T01:47:07;103202.50;;;4.68;100.00
25238;BME280;13185;50.872;5.306;2023-02-11T01:52:16;103231.78;;;4.63;100.00
25238;BME280;13185;50.872;5.306;2023-02-11T01:54:53;103223.78;;;4.63;100.00
25238;BME280;13185;50.872;5.306;2023-02-11T01:57:42;103221.13;;;4.65;100.00
25238;BME280;13185;50.872;5.306;2023-02-11T02:00:22;103231.75;;;4.68;100.00
25238;BME280;13185;50.872;5.306;2023-02-11T02:03:16;103228.22;;;4.71;100.00
25238;BME280;13185;50.872;5.306;2023-02-11T02:05:52;103229.97;;;4.75;100.00
25238;BME280;13185;50.872;5.306;2023-02-11T02:11:05;103219.31;;;4.78;100.00
25238;BME280;13185;50.872;5.306;2023-02-11T02:13:33;103221.09;;;4.80;100.00
25238;BME280;13185;50.872;5.306;2023-02-11T02:16:04;103218.44;;;4.80;100.00
25238;BME280;13185;50.872;5.306;2023-02-11T02:24:04;103211.34;;;4.84;100.00
25238;BME280;13185;50.872;5.306;2023-02-11T02:27:17;103206.00;;;4.85;100.00
25238;BME280;13185;50.872;5.306;2023-02-11T02:32:44;103194.47;;;4.86;100.00
25238;BME280;13185;50.872;5.306;2023-02-11T02:38:00;103198.00;;;4.91;100.00
25238;BME280;13185;50.872;5.306;2023-02-11T02:40:37;103204.22;;;4.92;100.00
25238;BME280;13185;50.872;5.306;2023-02-11T02:43:06;103208.66;;;4.93;100.00
25238;BME280;13185;50.872;5.306;2023-02-11T02:45:33;103212.19;;;4.92;100.00
25238;BME280;13185;50.872;5.306;2023-02-11T02:47:59;103221.03;;;4.94;100.00
25238;BME280;13185;50.872;5.306;2023-02-11T02:50:29;103213.94;;;4.95;100.00
25238;BME280;13185;50.872;5.306;2023-02-11T02:56:07;103197.97;;;4.98;100.00
25238;BME280;13185;50.872;5.306;2023-02-11T03:04:29;103191.75;;;4.99;100.00
25238;BME280;13185;50.872;5.306;2023-02-11T03:07:17;103178.44;;;5.00;100.00
25238;BME280;13185;50.872;5.306;2023-02-11T03:10:19;103180.25;;;5.03;100.00
25238;BME280;13185;50.872;5.306;2023-02-11T03:12:47;103160.72;;;5.04;100.00
25238;BME280;13185;50.872;5.306;2023-02-11T03:15:16;103162.50;;;5.05;100.00
25238;BME280;13185;50.872;5.306;2023-02-11T03:17:46;103171.34;;;5.05;100.00
25238;BME280;13185;50.872;5.306;2023-02-11T03:20:14;103157.16;;;5.06;100.00
25238;BME280;13185;50.872;5.306;2023-02-11T03:22:52;103158.03;;;5.07;100.00
25238;BME280;13185;50.872;5.306;2023-02-11T03:25:21;103166.03;;;5.05;100.00
25238;BME280;13185;50.872;5.306;2023-02-11T03:28:06;103165.13;;;5.06;100.00
25238;BME280;13185;50.872;5.306;2023-02-11T03:30:46;103172.22;;;5.09;100.00
25238;BME280;13185;50.872;5.306;2023-02-11T03:33:21;103176.66;;;5.08;100.00
25238;BME280;13185;50.872;5.306;2023-02-11T03:36:14;103171.31;;;5.10;100.00
25238;BME280;13185;50.872;5.306;2023-02-11T03:38:48;103174.84;;;5.10;100.00
25238;BME280;13185;50.872;5.306;2023-02-11T03:41:18;103170.44;;;5.11;100.00
25238;BME280;13185;50.872;5.306;2023-02-11T03:43:49;103176.63;;;5.14;100.00
25238;BME280;13185;50.872;5.306;2023-02-11T03:46:18;103165.97;;;5.16;100.00
25238;BME280;13185;50.872;5.306;2023-02-11T03:48:51;103166.88;;;5.15;100.00
25238;BME280;13185;50.872;5.306;2023-02-11T03:51:21;103159.78;;;5.15;100.00
25238;BME280;13185;50.872;5.306;2023-02-11T03:53:48;103162.41;;;5.17;100.00
25238;BME280;13185;50.872;5.306;2023-02-11T03:56:19;103166.84;;;5.18;100.00
25238;BME280;13185;50.872;5.306;2023-02-11T03:58:47;103167.72;;;5.18;100.00
25238;BME280;13185;50.872;5.306;2023-02-11T04:01:13;103161.53;;;5.18;100.00
25238;BME280;13185;50.872;5.306;2023-02-11T04:03:38;103173.03;;;5.20;100.00
25238;BME280;13185;50.872;5.306;2023-02-11T04:06:04;103173.91;;;5.20;100.00
25238;BME280;13185;50.872;5.306;2023-02-11T04:08:30;103165.94;;;5.20;100.00
25238;BME280;13185;50.872;5.306;2023-02-11T04:10:56;103165.06;;;5.20;100.00
25238;BME280;13185;50.872;5.306;2023-02-11T04:13:21;103163.28;;;5.20;100.00
25238;BME280;13185;50.872;5.306;2023-02-11T04:15:47;103169.50;;;5.22;100.00
25238;BME280;13185;50.872;5.306;2023-02-11T04:18:12;103173.91;;;5.24;100.00
25238;BME280;13185;50.872;5.306;2023-02-11T04:20:38;103163.25;;;5.25;100.00
25238;BME280;13185;50.872;5.306;2023-02-11T04:23:03;103165.03;;;5.26;100.00
25238;BME280;13185;50.872;5.306;2023-02-11T04:25:29;103164.16;;;5.26;100.00
25238;BME280;13185;50.872;5.306;2023-02-11T04:27:54;103170.34;;;5.28;100.00
25238;BME280;13185;50.872;5.306;2023-02-11T04:30:20;103166.78;;;5.29;100.00
25238;BME280;13185;50.872;5.306;2023-02-11T04:32:45;103173.00;;;5.28;100.00
25238;BME280;13185;50.872;5.306;2023-02-11T04:35:11;103176.53;;;5.28;100.00
25238;BME280;13185;50.872;5.306;2023-02-11T04:37:36;103170.34;;;5.28;100.00
25238;BME280;13185;50.872;5.306;2023-02-11T04:40:02;103177.41;;;5.30;100.00
25238;BME280;13185;50.872;5.306;2023-02-11T04:42:28;103168.53;;;5.31;100.00
25238;BME280;13185;50.872;5.306;2023-02-11T04:44:53;103168.53;;;5.31;100.00
25238;BME280;13185;50.872;5.306;2023-02-11T04:47:19;103165.00;;;5.32;100.00
25238;BME280;13185;50.872;5.306;2023-02-11T04:49:45;103167.66;;;5.32;100.00
25238;BME280;13185;50.872;5.306;2023-02-11T04:52:10;103167.66;;;5.31;100.00
25238;BME280;13185;50.872;5.306;2023-02-11T04:54:36;103166.78;;;5.33;100.00
25238;BME280;13185;50.872;5.306;2023-02-11T04:57:01;103158.78;;;5.32;100.00
25238;BME280;13185;50.872;5.306;2023-02-11T04:59:28;103151.69;;;5.31;100.00
25238;BME280;13185;50.872;5.306;2023-02-11T05:01:53;103146.38;;;5.32;100.00
25238;BME280;13185;50.872;5.306;2023-02-11T05:04:18;103144.59;;;5.33;100.00
25238;BME280;13185;50.872;5.306;2023-02-11T05:06:44;103144.59;;;5.33;100.00
25238;BME280;13185;50.872;5.306;2023-02-11T05:09:11;103151.69;;;5.32;100.00
25238;BME280;13185;50.872;5.306;2023-02-11T05:11:37;103152.59;;;5.33;100.00
25238;BME280;13185;50.872;5.306;2023-02-11T05:14:04;103148.16;;;5.33;100.00
25238;BME280;13185;50.872;5.306;2023-02-11T05:16:30;103151.69;;;5.31;100.00
25238;BME280;13185;50.872;5.306;2023-02-11T05:18:55;103151.69;;;5.32;100.00
25238;BME280;13185;50.872;5.306;2023-02-11T05:21:21;103140.16;;;5.32;100.00
25238;BME280;13185;50.872;5.306;2023-02-11T05:23:47;103136.63;;;5.33;100.00
25238;BME280;13185;50.872;5.306;2023-02-11T05:26:13;103128.63;;;5.33;100.00
25238;BME280;13185;50.872;5.306;2023-02-11T05:28:39;103127.75;;;5.34;100.00
25238;BME280;13185;50.872;5.306;2023-02-11T05:31:05;103126.84;;;5.33;100.00
25238;BME280;13185;50.872;5.306;2023-02-11T05:33:31;103124.19;;;5.33;100.00
25238;BME280;13185;50.872;5.306;2023-02-11T05:35:58;103128.59;;;5.36;100.00
25238;BME280;13185;50.872;5.306;2023-02-11T05:38:25;103133.03;;;5.35;100.00
25238;BME280;13185;50.872;5.306;2023-02-11T05:40:50;103135.69;;;5.35;100.00
25238;BME280;13185;50.872;5.306;2023-02-11T05:43:16;103136.59;;;5.36;100.00
25238;BME280;13185;50.872;5.306;2023-02-11T05:45:41;103139.25;;;5.36;100.00
25238;BME280;13185;50.872;5.306;2023-02-11T05:48:07;103142.78;;;5.36;100.00
25238;BME280;13185;50.872;5.306;2023-02-11T05:50:32;103138.34;;;5.37;100.00
25238;BME280;13185;50.872;5.306;2023-02-11T05:52:57;103147.25;;;5.34;100.00
25238;BME280;13185;50.872;5.306;2023-02-11T05:55:23;103149.00;;;5.35;100.00
25238;BME280;13185;50.872;5.306;2023-02-11T05:57:48;103141.91;;;5.36;100.00
25238;BME280;13185;50.872;5.306;2023-02-11T06:00:14;103141.03;;;5.35;100.00
25238;BME280;13185;50.872;5.306;2023-02-11T06:02:40;103134.81;;;5.36;100.00
25238;BME280;13185;50.872;5.306;2023-02-11T06:05:05;103121.50;;;5.35;100.00
25238;BME280;13185;50.872;5.306;2023-02-11T06:07:31;103123.31;;;5.33;100.00
25238;BME280;13185;50.872;5.306;2023-02-11T06:09:56;103124.19;;;5.33;100.00
25238;BME280;13185;50.872;5.306;2023-02-11T06:12:22;103126.84;;;5.33;100.00
25238;BME280;13185;50.872;5.306;2023-02-11T06:14:48;103121.53;;;5.33;100.00
25238;BME280;13185;50.872;5.306;2023-02-11T06:17:13;103133.94;;;5.34;100.00
25238;BME280;13185;50.872;5.306;2023-02-11T06:19:38;103127.75;;;5.34;100.00
25238;BME280;13185;50.872;5.306;2023-02-11T06:22:04;103133.97;;;5.33;100.00
25238;BME280;13185;50.872;5.306;2023-02-11T06:24:29;103135.72;;;5.32;100.00
25238;BME280;13185;50.872;5.306;2023-02-11T06:26:55;103133.06;;;5.34;100.00
25238;BME280;13185;50.872;5.306;2023-02-11T06:29:20;103138.38;;;5.35;100.00
25238;BME280;13185;50.872;5.306;2023-02-11T06:31:46;103135.69;;;5.35;100.00
25238;BME280;13185;50.872;5.306;2023-02-11T06:34:11;103141.91;;;5.36;100.00
25238;BME280;13185;50.872;5.306;2023-02-11T06:36:38;103137.44;;;5.38;100.00
25238;BME280;13185;50.872;5.306;2023-02-11T06:39:04;103138.34;;;5.37;100.00
25238;BME280;13185;50.872;5.306;2023-02-11T06:41:30;103142.78;;;5.38;100.00
25238;BME280;13185;50.872;5.306;2023-02-11T06:43:55;103137.44;;;5.38;100.00
25238;BME280;13185;50.872;5.306;2023-02-11T06:46:21;103149.84;;;5.39;100.00
25238;BME280;13185;50.872;5.306;2023-02-11T06:48:46;103147.19;;;5.39;100.00
25238;BME280;13185;50.872;5.306;2023-02-11T06:51:13;103148.97;;;5.38;100.00
25238;BME280;13185;50.872;5.306;2023-02-11T06:53:44;103148.09;;;5.38;100.00
25238;BME280;13185;50.872;5.306;2023-02-11T06:56:13;103149.84;;;5.40;100.00
25238;BME280;13185;50.872;5.306;2023-02-11T06:58:39;103154.28;;;5.40;100.00
25238;BME280;13185;50.872;5.306;2023-02-11T07:01:06;103157.84;;;5.42;100.00
25238;BME280;13185;50.872;5.306;2023-02-11T07:03:33;103156.06;;;5.42;100.00
25238;BME280;13185;50.872;5.306;2023-02-11T07:06:04;103154.28;;;5.41;100.00
25238;BME280;13185;50.872;5.306;2023-02-11T07:08:33;103156.06;;;5.42;100.00
25238;BME280;13185;50.872;5.306;2023-02-11T07:10:59;103155.19;;;5.42;100.00
25238;BME280;13185;50.872;5.306;2023-02-11T07:13:24;103152.53;;;5.42;100.00
25238;BME280;13185;50.872;5.306;2023-02-11T07:15:50;103154.28;;;5.40;100.00
25238;BME280;13185;50.872;5.306;2023-02-11T07:18:15;103159.59;;;5.41;100.00
25238;BME280;13185;50.872;5.306;2023-02-11T07:20:41;103170.25;;;5.43;100.00
25238;BME280;13185;50.872;5.306;2023-02-11T07:23:06;103164.03;;;5.44;100.00
25238;BME280;13185;50.872;5.306;2023-02-11T07:25:32;103165.81;;;5.45;100.00
25238;BME280;13185;50.872;5.306;2023-02-11T07:27:58;103156.06;;;5.44;100.00
25238;BME280;13185;50.872;5.306;2023-02-11T07:30:23;103163.13;;;5.45;100.00
25238;BME280;13185;50.872;5.306;2023-02-11T07:32:49;103167.56;;;5.46;100.00
25238;BME280;13185;50.872;5.306;2023-02-11T07:35:14;103173.75;;;5.46;100.00
25238;BME280;13185;50.872;5.306;2023-02-11T07:37:40;103169.34;;;5.45;100.00
25238;BME280;13185;50.872;5.306;2023-02-11T07:40:08;103185.31;;;5.45;100.00
25238;BME280;13185;50.872;5.306;2023-02-11T07:42:34;103171.09;;;5.46;100.00
25238;BME280;13185;50.872;5.306;2023-02-11T07:45:00;103179.09;;;5.46;100.00
25238;BME280;13185;50.872;5.306;2023-02-11T07:47:25;103182.63;;;5.47;100.00
25238;BME280;13185;50.872;5.306;2023-02-11T07:49:51;103191.47;;;5.49;100.00
25238;BME280;13185;50.872;5.306;2023-02-11T07:52:17;103194.16;;;5.49;100.00
25238;BME280;13185;50.872;5.306;2023-02-11T07:54:42;103193.25;;;5.50;100.00
25238;BME280;13185;50.872;5.306;2023-02-11T07:57:07;103193.28;;;5.48;100.00
25238;BME280;13185;50.872;5.306;2023-02-11T07:59:33;103192.38;;;5.49;100.00
25238;BME280;13185;50.872;5.306;2023-02-11T08:01:58;103195.91;;;5.50;100.00
25238;BME280;13185;50.872;5.306;2023-02-11T08:04:24;103194.13;;;5.50;100.00
25238;BME280;13185;50.872;5.306;2023-02-11T08:06:49;103203.03;;;5.53;100.00
25238;BME280;13185;50.872;5.306;2023-02-11T08:09:17;103204.78;;;5.54;100.00
25238;BME280;13185;50.872;5.306;2023-02-11T08:11:42;103200.34;;;5.54;100.00
25238;BME280;13185;50.872;5.306;2023-02-11T08:14:10;103211.84;;;5.56;100.00
25238;BME280;13185;50.872;5.306;2023-02-11T08:16:36;103202.97;;;5.59;100.00
25238;BME280;13185;50.872;5.306;2023-02-11T08:19:10;103202.94;;;5.60;100.00
25238;BME280;13185;50.872;5.306;2023-02-11T08:21:37;103210.91;;;5.62;100.00
25238;BME280;13185;50.872;5.306;2023-02-11T08:24:03;103212.69;;;5.61;100.00
25238;BME280;13185;50.872;5.306;2023-02-11T08:26:30;103208.28;;;5.60;100.00
25238;BME280;13185;50.872;5.306;2023-02-11T08:28:57;103206.50;;;5.61;100.00
25238;BME280;13185;50.872;5.306;2023-02-11T08:31:34;103213.59;;;5.63;100.00
25238;BME280;13185;50.872;5.306;2023-02-11T08:34:00;103220.69;;;5.64;100.00
25238;BME280;13185;50.872;5.306;2023-02-11T08:36:34;103228.66;;;5.66;100.00
25238;BME280;13185;50.872;5.306;2023-02-11T08:39:02;103223.31;;;5.67;100.00
25238;BME280;13185;50.872;5.306;2023-02-11T08:41:30;103228.63;;;5.69;100.00
25238;BME280;13185;50.872;5.306;2023-02-11T08:43:55;103241.91;;;5.72;100.00
25238;BME280;13185;50.872;5.306;2023-02-11T08:46:21;103232.16;;;5.74;100.00
25238;BME280;13185;50.872;5.306;2023-02-11T08:48:46;103240.13;;;5.72;100.00
25238;BME280;13185;50.872;5.306;2023-02-11T08:51:21;103241.03;;;5.71;100.00
25238;BME280;13185;50.872;5.306;2023-02-11T08:53:48;103243.69;;;5.74;100.00
25238;BME280;13185;50.872;5.306;2023-02-11T08:56:15;103243.69;;;5.76;100.00
25238;BME280;13185;50.872;5.306;2023-02-11T08:58:41;103248.97;;;5.79;100.00
25238;BME280;13185;50.872;5.306;2023-02-11T09:01:18;103244.50;;;5.84;100.00
25238;BME280;13185;50.872;5.306;2023-02-11T09:03:44;103233.84;;;5.86;100.00
25238;BME280;13185;50.872;5.306;2023-02-11T09:06:11;103240.03;;;5.88;100.00
25238;BME280;13185;50.872;5.306;2023-02-11T09:08:40;103248.91;;;5.88;100.00
25238;BME280;13185;50.872;5.306;2023-02-11T09:11:06;103246.25;;;5.91;100.00
25238;BME280;13185;50.872;5.306;2023-02-11T09:13:32;103249.78;;;5.95;100.00
25238;BME280;13185;50.872;5.306;2023-02-11T09:15:59;103251.53;;;5.97;100.00
25238;BME280;13185;50.872;5.306;2023-02-11T09:18:24;103243.53;;;5.99;100.00
25238;BME280;13185;50.872;5.306;2023-02-11T09:20:50;103244.38;;;6.04;100.00
25238;BME280;13185;50.872;5.306;2023-02-11T09:23:16;103245.25;;;6.06;100.00
25238;BME280;13185;50.872;5.306;2023-02-11T09:25:41;103244.34;;;6.08;100.00
25238;BME280;13185;50.872;5.306;2023-02-11T09:28:07;103251.41;;;6.11;100.00
25238;BME280;13185;50.872;5.306;2023-02-11T09:30:35;103256.72;;;6.13;100.00
25238;BME280;13185;50.872;5.306;2023-02-11T09:33:00;103257.63;;;6.13;100.00
25238;BME280;13185;50.872;5.306;2023-02-11T09:35:26;103262.94;;;6.13;100.00
25238;BME280;13185;50.872;5.306;2023-02-11T09:37:51;103260.25;;;6.15;100.00
25238;BME280;13185;50.872;5.306;2023-02-11T09:40:17;103252.28;;;6.15;100.00
25238;BME280;13185;50.872;5.306;2023-02-11T09:45:21;103255.78;;;6.21;100.00
25238;BME280;13185;50.872;5.306;2023-02-11T09:47:59;103254.88;;;6.25;100.00
25238;BME280;13185;50.872;5.306;2023-02-11T09:50:45;103258.38;;;6.29;100.00
25238;BME280;13185;50.872;5.306;2023-02-11T09:55:52;103269.91;;;6.32;100.00
25238;BME280;13185;50.872;5.306;2023-02-11T09:58:29;103264.56;;;6.31;100.00
25238;BME280;13185;50.872;5.306;2023-02-11T10:06:20;103268.97;;;6.35;100.00
25238;BME280;13185;50.872;5.306;2023-02-11T10:22:39;103291.97;;;6.50;100.00
25238;BME280;13185;50.872;5.306;2023-02-11T10:25:26;103289.28;;;6.51;100.00
25238;BME280;13185;50.872;5.306;2023-02-11T10:27:55;103286.63;;;6.51;100.00
25238;BME280;13185;50.872;5.306;2023-02-11T10:30:29;103291.06;;;6.51;100.00
25238;BME280;13185;50.872;5.306;2023-02-11T10:35:27;103301.72;;;6.51;100.00
25238;BME280;13185;50.872;5.306;2023-02-11T10:37:53;103299.06;;;6.51;100.00
25238;BME280;13185;50.872;5.306;2023-02-11T10:40:26;103297.28;;;6.50;100.00
25238;BME280;13185;50.872;5.306;2023-02-11T10:42:54;103301.72;;;6.51;100.00
25238;BME280;13185;50.872;5.306;2023-02-11T10:47:56;103313.28;;;6.50;100.00
25238;BME280;13185;50.872;5.306;2023-02-11T10:50:29;103306.13;;;6.53;100.00
25238;BME280;13185;50.872;5.306;2023-02-11T10:55:35;103309.66;;;6.60;100.00
25238;BME280;13185;50.872;5.306;2023-02-11T10:58:01;103314.06;;;6.61;100.00
25238;BME280;13185;50.872;5.306;2023-02-11T11:00:39;103310.50;;;6.62;100.00
25238;BME280;13185;50.872;5.306;2023-02-11T11:03:16;103312.25;;;6.64;100.00
25238;BME280;13185;50.872;5.306;2023-02-11T11:06:03;103306.00;;;6.69;100.00
25238;BME280;13185;50.872;5.306;2023-02-11T11:08:58;103307.75;;;6.73;100.00
25238;BME280;13185;50.872;5.306;2023-02-11T11:11:25;103306.84;;;6.72;100.00
25238;BME280;13185;50.872;5.306;2023-02-11T11:14:00;103300.63;;;6.72;100.00
25238;BME280;13185;50.872;5.306;2023-02-11T11:16:32;103307.78;;;6.70;100.00
25238;BME280;13185;50.872;5.306;2023-02-11T11:22:09;103296.19;;;6.72;100.00
25238;BME280;13185;50.872;5.306;2023-02-11T11:24:44;103297.03;;;6.74;100.00
25238;BME280;13185;50.872;5.306;2023-02-11T11:27:28;103298.81;;;6.78;100.00
25238;BME280;13185;50.872;5.306;2023-02-11T11:29:54;103298.78;;;6.77;100.00
25238;BME280;13185;50.872;5.306;2023-02-11T11:32:29;103290.78;;;6.77;100.00
25238;BME280;13185;50.872;5.306;2023-02-11T11:35:01;103300.56;;;6.79;100.00
25238;BME280;13185;50.872;5.306;2023-02-11T11:37:30;103297.00;;;6.80;100.00
25238;BME280;13185;50.872;5.306;2023-02-11T11:42:40;103297.03;;;6.79;100.00
25238;BME280;13185;50.872;5.306;2023-02-11T11:47:42;103284.56;;;6.79;100.00
25238;BME280;13185;50.872;5.306;2023-02-11T11:55:33;103291.59;;;6.88;100.00
25238;BME280;13185;50.872;5.306;2023-02-11T11:58:00;103291.56;;;6.91;100.00
25238;BME280;13185;50.872;5.306;2023-02-11T12:00:46;103293.28;;;6.95;100.00
25238;BME280;13185;50.872;5.306;2023-02-11T12:11:27;103294.03;;;7.06;100.00
25238;BME280;13185;50.872;5.306;2023-02-11T12:21:58;103297.56;;;7.10;100.00
25238;BME280;13185;50.872;5.306;2023-02-11T12:27:43;103297.47;;;7.17;100.00
25238;BME280;13185;50.872;5.306;2023-02-11T12:43:24;103291.03;;;7.35;100.00
25238;BME280;13185;50.872;5.306;2023-02-11T12:46:11;103289.19;;;7.37;100.00
25238;BME280;13185;50.872;5.306;2023-02-11T12:57:22;103285.56;;;7.44;100.00
25238;BME280;13185;50.872;5.306;2023-02-11T13:03:09;103291.78;;;7.45;100.00
25238;BME280;13185;50.872;5.306;2023-02-11T13:05:53;103292.63;;;7.47;100.00
25238;BME280;13185;50.872;5.306;2023-02-11T13:08:30;103289.06;;;7.48;100.00
25238;BME280;13185;50.872;5.306;2023-02-11T13:11:10;103282.78;;;7.52;100.00
25238;BME280;13185;50.872;5.306;2023-02-11T13:13:49;103281.88;;;7.55;100.00
25238;BME280;13185;50.872;5.306;2023-02-11T13:16:39;103270.28;;;7.56;100.00
25238;BME280;13185;50.872;5.306;2023-02-11T13:27:12;103277.41;;;7.55;100.00
25238;BME280;13185;50.872;5.306;2023-02-11T13:35:36;103269.38;;;7.57;100.00
25238;BME280;13185;50.872;5.306;2023-02-11T13:38:17;103271.13;;;7.58;100.00
25238;BME280;13185;50.872;5.306;2023-02-11T13:40:44;103259.53;;;7.59;100.00
25238;BME280;13185;50.872;5.306;2023-02-11T13:43:21;103256.84;;;7.60;100.00
25238;BME280;13185;50.872;5.306;2023-02-11T13:45:49;103259.50;;;7.60;100.00
25238;BME280;13185;50.872;5.306;2023-02-11T13:48:22;103269.31;;;7.61;100.00
25238;BME280;13185;50.872;5.306;2023-02-11T13:51:12;103276.44;;;7.62;100.00
25238;BME280;13185;50.872;5.306;2023-02-11T13:53:54;103263.97;;;7.61;100.00
25238;BME280;13185;50.872;5.306;2023-02-11T13:56:30;103262.19;;;7.60;100.00
25238;BME280;13185;50.872;5.306;2023-02-11T13:58:58;103258.63;;;7.61;100.00
25238;BME280;13185;50.872;5.306;2023-02-11T14:04:36;103265.75;;;7.62;100.00
25238;BME280;13185;50.872;5.306;2023-02-11T14:10:48;103263.00;;;7.67;100.00
25238;BME280;13185;50.872;5.306;2023-02-11T14:16:15;103254.94;;;7.68;100.00
25238;BME280;13185;50.872;5.306;2023-02-11T14:21:11;103254.94;;;7.68;100.00
25238;BME280;13185;50.872;5.306;2023-02-11T14:23:39;103249.59;;;7.68;100.00
25238;BME280;13185;50.872;5.306;2023-02-11T14:29:11;103256.66;;;7.74;100.00
25238;BME280;13185;50.872;5.306;2023-02-11T14:35:12;103256.66;;;7.74;100.00
25238;BME280;13185;50.872;5.306;2023-02-11T14:41:09;103250.47;;;7.72;100.00
25238;BME280;13185;50.872;5.306;2023-02-11T14:43:45;103251.34;;;7.72;100.00
25238;BME280;13185;50.872;5.306;2023-02-11T14:46:14;103259.34;;;7.71;100.00
25238;BME280;13185;50.872;5.306;2023-02-11T14:48:45;103261.16;;;7.72;100.00
25238;BME280;13185;50.872;5.306;2023-02-11T14:53:46;103266.50;;;7.72;100.00
25238;BME280;13185;50.872;5.306;2023-02-11T14:56:25;103263.78;;;7.73;100.00
25238;BME280;13185;50.872;5.306;2023-02-11T14:58:52;103268.19;;;7.76;100.00
25238;BME280;13185;50.872;5.306;2023-02-11T15:01:33;103269.13;;;7.75;100.00
25238;BME280;13185;50.872;5.306;2023-02-11T15:04:01;103270.88;;;7.76;100.00
25238;BME280;13185;50.872;5.306;2023-02-11T15:06:38;103274.41;;;7.78;100.00
25238;BME280;13185;50.872;5.306;2023-02-11T15:11:36;103280.69;;;7.75;100.00
25238;BME280;13185;50.872;5.306;2023-02-11T15:14:14;103276.28;;;7.73;100.00
25238;BME280;13185;50.872;5.306;2023-02-11T15:16:42;103274.47;;;7.73;100.00
25238;BME280;13185;50.872;5.306;2023-02-11T15:22:18;103276.25;;;7.74;100.00
25238;BME280;13185;50.872;5.306;2023-02-11T15:25:10;103275.38;;;7.74;100.00
25238;BME280;13185;50.872;5.306;2023-02-11T15:27:41;103285.13;;;7.75;100.00
25238;BME280;13185;50.872;5.306;2023-02-11T15:30:28;103273.53;;;7.76;100.00
25238;BME280;13185;50.872;5.306;2023-02-11T15:32:59;103269.09;;;7.76;100.00
25238;BME280;13185;50.872;5.306;2023-02-11T15:35:30;103272.59;;;7.78;100.00
25238;BME280;13185;50.872;5.306;2023-02-11T15:37:58;103278.84;;;7.79;100.00
25238;BME280;13185;50.872;5.306;2023-02-11T15:40:28;103275.28;;;7.78;100.00
25238;BME280;13185;50.872;5.306;2023-02-11T15:43:01;103277.97;;;7.77;100.00